Impacts TAF Board
For situational awareness. Not to be used for flight planning purposes.
IDs:

KBVI - Beaver Falls Arpt, PA, US

Issued at 1720 UTC 01 Feb 2023
Updated at 2154 UTC 01 Feb 2023
Potential Impact None Slight Moderate High
Time2147Z 01/22Z 01/23Z 02/00Z 02/01Z 02/02Z 02/03Z 02/04Z 02/05Z 02/06Z 02/07Z 02/08Z 02/09Z 02/10Z>>
Type OBS PRVL PRVL PRVL PRVL PRVL PRVL PRVL PRVL PRVL PRVL PRVL PRVL PRVL
VIS 10 >6 >6 >6 >6 >6 >6 >6 >6 >6 >6 >6 >6 >6
CIG -- -- -- -- -- 250 250 250 250 250 250 250 250 250
Cover CLR SCT SCT SCT SCT BKN BKN BKN BKN BKN BKN BKN BKN BKN
FltCat VFR VFR VFR VFR VFR VFR VFR VFR VFR VFR VFR VFR VFR VFR
WX -- -- -- -- -- -- -- -- -- -- -- -- -- --
WDir 270 270 270 270 270 210 210 210 210 210 210 210 210 210
WSpd 5 5 5 5 5 5 5 5 5 5 5 5 5 5
WGst -- -- -- -- -- -- -- -- -- -- -- -- -- --
WSHgt -- -- -- -- -- -- -- -- -- -- -- -- -- --
WSDir -- -- -- -- -- -- -- -- -- -- -- -- -- --
WSSpd -- -- -- -- -- -- -- -- -- -- -- -- -- --

NOTE: LAMP data beyond the time of the TAF data is denoted as LAMP in Type and colored magenta.

Raw TAF
KBVI 011720Z 0118/0218 27005KT P6SM SCT250
  FM020200 21005KT P6SM BKN250
  FM021400 23010G18KT P6SM SCT250


Raw METAR
KBVI 012147Z AUTO 27005KT 10SM CLR M02/M15 A3027
KBVI 012135Z AUTO 28004KT 10SM CLR M01/M15 A3027 RMK AO2 T10121153
KBVI 012115Z AUTO 31006KT 10SM CLR M01/M15 A3027 RMK AO2 T10101150
KBVI 012055Z AUTO 27006KT 10SM CLR M01/M15 A3027 RMK AO2 T10121149
KBVI 012047Z AUTO 26005KT 10SM CLR M02/M16 A3027
KBVI 012035Z AUTO 27003KT 10SM CLR M01/M16 A3027 RMK AO2 T10141156
KBVI 012015Z AUTO 31007KT 10SM CLR M01/M15 A3028 RMK AO2 T10071148
KBVI 011955Z AUTO 29004KT 10SM CLR M01/M16 A3028 RMK AO2 T10111159
KBVI 011947Z AUTO 26007KT 10SM CLR M01/M16 A3028
KBVI 011935Z AUTO 26005KT 10SM CLR M02/M16 A3028 RMK AO2 T10161161
KBVI 011915Z AUTO 28005KT 10SM CLR M02/M16 A3029 RMK AO2 T10161159
KBVI 011855Z AUTO 25006KT 10SM CLR M02/M16 A3029 RMK AO2 T10211160
KBVI 011847Z AUTO 29005KT 10SM CLR M02/M16 A3029
KBVI 011835Z AUTO 32003KT 10SM CLR M02/M15 A3030 RMK AO2 T10191152

METAR Board
Radar Display
Forecast Discussion

For situational awareness. Not to be used for flight planning purposes.